createdAt,value
2018-03-26T00:00:45.905Z,-2.70
2018-03-26T00:03:13.447Z,-2.75
2018-03-26T00:05:40.998Z,-2.81
2018-03-26T00:08:08.575Z,-2.76
2018-03-26T00:10:36.183Z,-2.74
2018-03-26T00:13:03.735Z,-2.77
2018-03-26T00:15:31.293Z,-2.78
2018-03-26T00:17:58.851Z,-2.83
2018-03-26T00:20:26.439Z,-2.85
2018-03-26T00:22:54.004Z,-2.80
2018-03-26T00:25:21.598Z,-2.78
2018-03-26T00:27:49.154Z,-2.74
2018-03-26T00:30:16.712Z,-2.79
2018-03-26T00:32:44.310Z,-2.74
2018-03-26T00:35:11.874Z,-2.65
2018-03-26T00:37:39.447Z,-2.65
2018-03-26T00:40:07.008Z,-2.61
2018-03-26T00:42:34.558Z,-2.56
2018-03-26T00:45:02.191Z,-2.48
2018-03-26T00:47:29.786Z,-2.39
2018-03-26T00:49:57.415Z,-2.23
2018-03-26T00:52:24.968Z,-2.11
2018-03-26T00:54:52.513Z,-2.01
2018-03-26T00:57:20.074Z,-1.92
2018-03-26T00:59:47.623Z,-1.82
2018-03-26T01:02:15.338Z,-1.70
2018-03-26T01:04:43.538Z,-1.67
2018-03-26T01:07:12.084Z,-1.62
2018-03-26T01:09:40.311Z,-1.50
2018-03-26T01:12:07.926Z,-1.31
2018-03-26T01:14:35.547Z,-1.24
2018-03-26T01:17:03.091Z,-1.21
2018-03-26T01:19:30.688Z,-1.16
2018-03-26T01:21:58.373Z,-1.09
2018-03-26T01:24:25.949Z,-1.25
2018-03-26T01:26:53.613Z,-1.36
2018-03-26T01:29:21.934Z,-1.48
2018-03-26T01:31:49.697Z,-1.45
2018-03-26T01:34:17.286Z,-1.33
2018-03-26T01:36:44.876Z,-1.12
2018-03-26T01:39:12.687Z,-1.02
2018-03-26T01:41:40.337Z,-1.07
2018-03-26T01:44:08.061Z,-1.08
2018-03-26T01:46:36.628Z,-1.03
2018-03-26T01:49:04.270Z,-1.09
2018-03-26T01:51:31.862Z,-1.16
2018-03-26T01:53:59.443Z,-1.15
2018-03-26T01:56:27.010Z,-1.15
2018-03-26T01:58:55.706Z,-1.05
2018-03-26T02:01:23.254Z,-1.05
2018-03-26T02:03:51.175Z,-1.05
2018-03-26T02:06:20.329Z,-1.03
2018-03-26T02:08:50.854Z,-1.08
2018-03-26T02:11:18.462Z,-1.05
2018-03-26T02:13:45.996Z,-0.96
2018-03-26T02:16:13.891Z,-1.14
2018-03-26T02:18:46.559Z,-1.24
2018-03-26T02:21:14.786Z,-1.28
2018-03-26T02:23:42.322Z,-1.23
2018-03-26T02:26:15.223Z,-1.17
2018-03-26T02:28:46.489Z,-1.16
2018-03-26T02:31:15.979Z,-1.01
2018-03-26T02:33:43.530Z,-0.91
2018-03-26T02:36:11.099Z,-0.81
2018-03-26T02:38:39.726Z,-0.78
2018-03-26T02:41:08.584Z,-0.88
2018-03-26T02:43:36.707Z,-0.87
2018-03-26T02:46:04.928Z,-0.91
2018-03-26T02:48:34.116Z,-0.97
2018-03-26T02:51:01.686Z,-1.02
2018-03-26T02:53:29.438Z,-1.02
2018-03-26T02:55:58.649Z,-0.91
2018-03-26T02:58:27.501Z,-0.73
2018-03-26T03:00:55.530Z,-0.61
2018-03-26T03:03:23.992Z,-0.57
2018-03-26T03:05:51.724Z,-0.55
2018-03-26T03:08:19.298Z,-0.47
2018-03-26T03:10:46.846Z,-0.48
2018-03-26T03:13:14.468Z,-0.60
2018-03-26T03:15:42.058Z,-0.64
2018-03-26T03:18:09.794Z,-0.64
2018-03-26T03:20:38.709Z,-0.72
2018-03-26T03:23:06.512Z,-0.75
2018-03-26T03:25:36.526Z,-0.71
2018-03-26T03:28:04.941Z,-0.74
2018-03-26T03:30:34.165Z,-0.66
2018-03-26T03:33:01.729Z,-0.57
2018-03-26T03:35:29.619Z,-0.57
2018-03-26T03:37:57.194Z,-0.55
2018-03-26T03:40:24.832Z,-0.50
2018-03-26T03:42:52.385Z,-0.41
2018-03-26T03:45:20.163Z,-0.24
2018-03-26T03:47:47.736Z,-0.24
2018-03-26T03:50:15.460Z,-0.10
2018-03-26T03:52:43.992Z,-0.04
2018-03-26T03:55:12.541Z,0.00
2018-03-26T03:57:40.144Z,-0.23
2018-03-26T04:00:09.473Z,-0.29
2018-03-26T04:02:37.035Z,-0.28
2018-03-26T04:05:05.486Z,-0.22
2018-03-26T04:07:33.098Z,-0.31
2018-03-26T04:10:01.892Z,-0.46
2018-03-26T04:12:29.517Z,-0.43
2018-03-26T04:14:57.172Z,-0.45
2018-03-26T04:17:24.803Z,-0.48
2018-03-26T04:19:53.041Z,-0.36
2018-03-26T04:22:20.675Z,-0.33
2018-03-26T04:24:48.243Z,-0.36
2018-03-26T04:27:17.335Z,-0.42
2018-03-26T04:29:44.980Z,-0.35
2018-03-26T04:32:12.971Z,-0.24
2018-03-26T04:34:40.798Z,-0.34
2018-03-26T04:37:08.665Z,-0.47
2018-03-26T04:39:36.508Z,-0.44
2018-03-26T04:42:04.188Z,-0.41
2018-03-26T04:44:32.985Z,-0.45
2018-03-26T04:47:01.565Z,-0.53
2018-03-26T04:49:29.852Z,-0.65
2018-03-26T04:54:29.412Z,-0.74
2018-03-26T04:56:57.134Z,-0.74
2018-03-26T04:59:26.748Z,-0.75
2018-03-26T05:01:54.594Z,-0.67
2018-03-26T05:04:22.351Z,-0.67
2018-03-26T05:06:49.987Z,-0.66
2018-03-26T05:09:17.677Z,-0.59
2018-03-26T05:11:46.348Z,-0.49
2018-03-26T05:14:14.148Z,-0.47
2018-03-26T05:16:41.751Z,-0.47
2018-03-26T05:19:11.106Z,-0.47
2018-03-26T05:21:40.153Z,-0.53
2018-03-26T05:24:08.142Z,-0.61
2018-03-26T05:26:35.954Z,-0.55
2018-03-26T05:29:03.790Z,-0.43
2018-03-26T05:31:32.636Z,-0.40
2018-03-26T05:34:00.314Z,-0.27
2018-03-26T05:36:28.802Z,-0.16
2018-03-26T05:38:56.366Z,-0.22
2018-03-26T05:41:24.108Z,-0.22
2018-03-26T05:43:51.679Z,-0.10
2018-03-26T05:46:19.878Z,0.08
2018-03-26T05:48:47.515Z,0.27
2018-03-26T05:51:15.252Z,0.33
2018-03-26T05:53:43.152Z,0.45
2018-03-26T05:56:15.790Z,0.53
2018-03-26T05:58:43.410Z,0.40
2018-03-26T06:01:11.088Z,0.32
2018-03-26T06:03:39.477Z,0.31
2018-03-26T06:06:07.154Z,0.41
2018-03-26T06:08:34.703Z,0.80
2018-03-26T06:11:04.262Z,1.16
2018-03-26T06:13:34.127Z,1.41
2018-03-26T06:18:56.749Z,1.74
2018-03-26T06:21:24.664Z,1.98
2018-03-26T06:23:55.862Z,2.01
2018-03-26T06:26:25.378Z,1.65
2018-03-26T06:28:57.074Z,1.33
2018-03-26T06:31:27.624Z,1.27
2018-03-26T06:33:55.258Z,1.13
2018-03-26T06:39:32.818Z,2.01
2018-03-26T06:42:09.809Z,2.32
2018-03-26T06:44:38.120Z,2.54
2018-03-26T06:47:05.962Z,2.76
2018-03-26T06:49:33.695Z,2.73
2018-03-26T06:52:01.439Z,2.82
2018-03-26T06:54:32.918Z,2.88
2018-03-26T06:57:01.706Z,2.61
2018-03-26T06:59:29.449Z,2.77
2018-03-26T07:01:57.170Z,2.22
2018-03-26T07:04:24.915Z,2.33
2018-03-26T07:06:52.549Z,2.66
2018-03-26T07:09:20.632Z,2.73
2018-03-26T07:11:48.199Z,3.10
2018-03-26T07:14:15.773Z,3.30
2018-03-26T07:16:43.326Z,3.10
2018-03-26T07:19:10.842Z,3.36
2018-03-26T07:21:38.458Z,3.44
2018-03-26T07:24:06.043Z,3.35
2018-03-26T07:26:33.732Z,3.12
2018-03-26T07:29:01.341Z,2.91
2018-03-26T07:31:28.876Z,2.60
2018-03-26T07:33:56.418Z,2.44
2018-03-26T07:36:23.972Z,2.57
2018-03-26T07:38:51.535Z,2.59
2018-03-26T07:41:19.094Z,2.70
2018-03-26T07:43:46.629Z,3.34
2018-03-26T07:46:14.154Z,3.43
2018-03-26T07:48:41.702Z,3.89
2018-03-26T07:51:09.225Z,4.35
2018-03-26T07:53:36.747Z,4.89
2018-03-26T07:56:04.296Z,5.19
2018-03-26T07:58:31.842Z,4.90
2018-03-26T08:00:59.389Z,5.07
2018-03-26T08:03:28.129Z,4.61
2018-03-26T08:05:55.724Z,4.34
2018-03-26T08:10:51.054Z,4.72
2018-03-26T08:13:18.677Z,4.96
2018-03-26T08:15:46.272Z,4.37
2018-03-26T08:18:14.126Z,3.92
2018-03-26T08:20:41.781Z,3.71
2018-03-26T08:23:09.416Z,4.30
2018-03-26T08:25:37.053Z,4.72
2018-03-26T08:28:04.676Z,5.03
2018-03-26T08:30:32.761Z,5.15
2018-03-26T08:33:00.339Z,5.43
2018-03-26T08:35:28.758Z,5.38
2018-03-26T08:37:56.279Z,5.11
2018-03-26T08:40:23.824Z,5.57
2018-03-26T08:42:51.596Z,5.47
2018-03-26T08:45:19.179Z,4.96
2018-03-26T08:47:46.758Z,5.08
2018-03-26T08:50:14.495Z,5.17
2018-03-26T08:52:41.936Z,5.49
2018-03-26T08:55:09.535Z,5.79
2018-03-26T08:57:37.076Z,5.76
2018-03-26T09:00:04.774Z,5.67
2018-03-26T09:02:32.330Z,5.37
2018-03-26T09:04:59.852Z,5.60
2018-03-26T09:07:27.876Z,5.92
2018-03-26T09:09:55.452Z,6.21
2018-03-26T09:12:23.171Z,6.50
2018-03-26T09:14:50.752Z,6.64
2018-03-26T09:17:18.589Z,6.74
2018-03-26T09:19:46.250Z,6.72
2018-03-26T09:22:13.838Z,6.88
2018-03-26T09:24:41.372Z,6.87
2018-03-26T09:27:09.035Z,6.62
2018-03-26T09:29:36.584Z,6.46
2018-03-26T09:32:04.227Z,6.42
2018-03-26T09:34:31.925Z,6.75
2018-03-26T09:36:59.490Z,6.78
2018-03-26T09:39:27.366Z,6.84
2018-03-26T09:41:55.191Z,6.64
2018-03-26T09:44:22.813Z,6.58
2018-03-26T09:46:50.383Z,7.00
2018-03-26T09:49:18.084Z,7.34
2018-03-26T09:51:45.766Z,7.28
2018-03-26T09:54:13.343Z,7.56
2018-03-26T09:56:40.924Z,7.34
2018-03-26T09:59:08.443Z,7.36
2018-03-26T10:04:31.777Z,8.26
2018-03-26T10:07:00.038Z,8.65
2018-03-26T10:09:27.851Z,8.76
2018-03-26T10:11:59.179Z,8.55
2018-03-26T10:14:26.743Z,8.68
2018-03-26T10:16:54.838Z,8.95
2018-03-26T10:19:22.387Z,8.77
2018-03-26T10:21:49.905Z,9.18
2018-03-26T10:24:17.401Z,9.44
2018-03-26T10:26:46.032Z,9.21
2018-03-26T10:29:14.263Z,9.14
2018-03-26T10:31:42.665Z,9.18
2018-03-26T10:34:10.301Z,9.37
2018-03-26T10:36:39.689Z,9.89
2018-03-26T10:39:07.283Z,9.79
2018-03-26T10:41:34.970Z,9.90
2018-03-26T10:44:02.822Z,10.08
2018-03-26T10:46:30.411Z,9.68
2018-03-26T10:48:58.563Z,9.81
2018-03-26T10:51:26.127Z,10.28
2018-03-26T10:53:55.426Z,9.79
2018-03-26T10:56:23.158Z,10.22
2018-03-26T10:58:50.769Z,10.99
2018-03-26T11:01:18.470Z,10.94
2018-03-26T11:03:46.132Z,10.50
2018-03-26T11:06:13.780Z,10.12
2018-03-26T11:08:41.419Z,10.15
2018-03-26T11:11:08.998Z,10.91
2018-03-26T11:13:36.644Z,10.95
2018-03-26T11:16:04.364Z,11.33
2018-03-26T11:18:32.096Z,11.54
2018-03-26T11:20:59.683Z,10.94
2018-03-26T11:23:27.873Z,11.05
2018-03-26T11:25:55.931Z,11.19
2018-03-26T11:28:24.561Z,11.39
2018-03-26T11:30:52.059Z,11.07
2018-03-26T11:33:19.776Z,10.83
2018-03-26T11:35:47.384Z,10.67
2018-03-26T11:38:15.116Z,10.41
2018-03-26T11:40:42.716Z,10.37
2018-03-26T11:43:10.410Z,10.31
2018-03-26T11:45:38.776Z,9.38
2018-03-26T11:48:06.384Z,9.48
2018-03-26T11:50:33.924Z,9.32
2018-03-26T11:53:01.458Z,9.06
2018-03-26T11:55:30.302Z,8.64
2018-03-26T11:57:58.097Z,8.10
2018-03-26T12:00:25.695Z,7.82
2018-03-26T12:02:53.230Z,7.49
2018-03-26T12:05:21.035Z,7.19
2018-03-26T12:10:56.101Z,8.02
2018-03-26T12:13:24.159Z,7.60
2018-03-26T12:15:51.780Z,7.19
2018-03-26T12:18:19.380Z,7.41
2018-03-26T12:20:57.672Z,7.17
2018-03-26T12:23:37.014Z,6.74
2018-03-26T12:26:04.946Z,6.70
2018-03-26T12:28:44.409Z,6.73
2018-03-26T12:31:12.157Z,6.75
2018-03-26T12:33:51.638Z,6.74
2018-03-26T12:36:19.163Z,6.88
2018-03-26T12:38:46.708Z,7.16
2018-03-26T12:41:14.360Z,7.46
2018-03-26T12:43:42.406Z,7.60
2018-03-26T12:46:21.647Z,7.40
2018-03-26T12:48:49.200Z,7.31
2018-03-26T12:51:28.467Z,7.80
2018-03-26T12:53:56.027Z,7.81
2018-03-26T12:56:29.129Z,7.55
2018-03-26T12:58:56.734Z,7.13
2018-03-26T13:01:36.010Z,7.37
2018-03-26T13:04:03.591Z,7.33
2018-03-26T13:06:31.144Z,7.26
2018-03-26T13:08:58.692Z,7.28
2018-03-26T13:11:27.022Z,7.16
2018-03-26T13:13:54.585Z,7.09
2018-03-26T13:16:22.132Z,7.05
2018-03-26T13:18:49.686Z,7.05
2018-03-26T13:21:17.407Z,7.29
2018-03-26T13:23:45.059Z,7.89
2018-03-26T13:26:12.626Z,8.68
2018-03-26T13:28:40.161Z,9.39
2018-03-26T13:31:07.932Z,9.32
2018-03-26T13:33:35.475Z,8.80
2018-03-26T13:36:03.476Z,8.93
2018-03-26T13:38:31.044Z,9.40
2018-03-26T13:40:58.577Z,9.00
2018-03-26T13:43:27.488Z,8.83
2018-03-26T13:45:55.032Z,8.62
2018-03-26T13:48:23.836Z,8.30
2018-03-26T13:50:51.368Z,8.06
2018-03-26T13:53:19.025Z,7.78
2018-03-26T13:55:46.604Z,7.51
2018-03-26T13:58:14.321Z,7.41
2018-03-26T14:00:41.874Z,7.38
2018-03-26T14:03:09.603Z,7.41
2018-03-26T14:05:37.814Z,7.43
2018-03-26T14:08:05.574Z,7.40
2018-03-26T14:13:50.014Z,7.33
2018-03-26T14:16:29.504Z,7.31
2018-03-26T14:18:58.405Z,7.33
2018-03-26T14:21:25.899Z,7.35
2018-03-26T14:23:53.445Z,7.24
2018-03-26T14:26:20.945Z,7.28
2018-03-26T14:28:50.184Z,7.20
2018-03-26T14:31:17.866Z,7.25
2018-03-26T14:33:45.846Z,7.35
2018-03-26T14:36:17.932Z,7.35
2018-03-26T14:41:10.555Z,7.51
2018-03-26T14:43:39.127Z,7.51
2018-03-26T14:46:07.885Z,7.44
2018-03-26T14:48:35.414Z,7.42
2018-03-26T14:51:03.010Z,7.47
2018-03-26T14:53:31.219Z,7.12
2018-03-26T14:55:58.764Z,7.11
2018-03-26T14:58:26.332Z,7.16
2018-03-26T15:00:53.880Z,7.23
2018-03-26T15:03:21.515Z,7.43
2018-03-26T15:05:49.151Z,7.36
2018-03-26T15:08:16.736Z,7.35
2018-03-26T15:10:44.279Z,7.40
2018-03-26T15:13:12.129Z,7.42
2018-03-26T15:15:40.120Z,7.30
2018-03-26T15:18:08.427Z,7.33
2018-03-26T15:20:35.963Z,7.23
2018-03-26T15:23:03.510Z,7.10
2018-03-26T15:25:32.089Z,7.24
2018-03-26T15:27:59.689Z,7.42
2018-03-26T15:30:27.226Z,7.44
2018-03-26T15:32:54.772Z,7.42
2018-03-26T15:35:22.356Z,7.41
2018-03-26T15:37:49.895Z,7.39
2018-03-26T15:40:17.556Z,7.34
2018-03-26T15:42:45.123Z,7.41
2018-03-26T15:45:12.971Z,7.32
2018-03-26T15:47:40.507Z,7.32
2018-03-26T15:50:08.155Z,7.22
2018-03-26T15:52:35.680Z,7.13
2018-03-26T15:55:03.263Z,7.19
2018-03-26T15:57:30.852Z,7.25
2018-03-26T15:59:58.378Z,7.15
2018-03-26T16:02:32.295Z,7.07
2018-03-26T16:05:01.012Z,7.09
2018-03-26T16:07:33.026Z,7.10
2018-03-26T16:10:00.629Z,7.15
2018-03-26T16:12:29.114Z,7.16
2018-03-26T16:14:56.667Z,7.12
2018-03-26T16:17:24.320Z,7.08
2018-03-26T16:19:52.485Z,7.11
2018-03-26T16:22:20.028Z,7.07
2018-03-26T16:24:47.610Z,6.97
2018-03-26T16:27:15.135Z,6.92
2018-03-26T16:29:42.692Z,6.98
2018-03-26T16:32:10.317Z,6.93
2018-03-26T16:34:37.850Z,6.83
2018-03-26T16:37:05.388Z,6.71
2018-03-26T16:39:33.019Z,6.65
2018-03-26T16:42:12.560Z,6.68
2018-03-26T16:44:40.154Z,6.71
2018-03-26T16:47:07.873Z,6.72
2018-03-26T16:49:36.628Z,6.70
2018-03-26T16:52:04.174Z,6.71
2018-03-26T16:54:31.713Z,6.78
2018-03-26T16:57:00.012Z,6.68
2018-03-26T16:59:29.198Z,6.54
2018-03-26T17:01:56.756Z,6.35
2018-03-26T17:04:25.291Z,6.17
2018-03-26T17:06:52.909Z,6.08
2018-03-26T17:09:20.504Z,5.95
2018-03-26T17:11:48.032Z,5.83
2018-03-26T17:14:15.896Z,5.76
2018-03-26T17:16:43.421Z,5.70
2018-03-26T17:19:11.435Z,5.71
2018-03-26T17:21:39.004Z,5.67
2018-03-26T17:24:06.630Z,5.66
2018-03-26T17:26:34.194Z,5.71
2018-03-26T17:29:02.854Z,5.57
2018-03-26T17:31:34.777Z,5.61
2018-03-26T17:34:02.424Z,5.71
2018-03-26T17:36:29.957Z,5.65
2018-03-26T17:38:57.552Z,5.63
2018-03-26T17:41:25.190Z,5.53
2018-03-26T17:43:53.876Z,5.54
2018-03-26T17:46:21.568Z,5.47
2018-03-26T17:48:49.891Z,5.37
2018-03-26T17:51:18.194Z,5.17
2018-03-26T17:53:45.847Z,5.06
2018-03-26T17:56:13.421Z,4.97
2018-03-26T17:58:40.989Z,4.94
2018-03-26T18:01:08.777Z,4.90
2018-03-26T18:03:36.451Z,4.81
2018-03-26T18:06:04.753Z,4.83
2018-03-26T18:08:33.287Z,4.77
2018-03-26T18:11:01.732Z,4.70
2018-03-26T18:13:29.415Z,4.59
2018-03-26T18:15:57.000Z,4.46
2018-03-26T18:18:24.731Z,4.39
2018-03-26T18:20:52.271Z,4.36
2018-03-26T18:23:20.758Z,4.48
2018-03-26T18:25:49.131Z,4.50
2018-03-26T18:28:17.251Z,4.49
2018-03-26T18:30:45.468Z,4.46
2018-03-26T18:33:13.988Z,4.44
2018-03-26T18:35:42.451Z,4.42
2018-03-26T18:38:10.526Z,4.44
2018-03-26T18:40:38.620Z,4.40
2018-03-26T18:43:06.483Z,4.31
2018-03-26T18:45:34.056Z,4.29
2018-03-26T18:48:07.015Z,4.25
2018-03-26T18:50:35.061Z,4.22
2018-03-26T18:53:05.585Z,4.10
2018-03-26T18:55:33.171Z,4.02
2018-03-26T18:58:00.814Z,3.95
2018-03-26T19:00:28.364Z,4.16
2018-03-26T19:02:55.956Z,4.11
2018-03-26T19:05:23.623Z,4.03
2018-03-26T19:07:51.254Z,4.10
2018-03-26T19:10:18.854Z,4.14
2018-03-26T19:12:46.396Z,4.19
2018-03-26T19:15:14.779Z,4.25
2018-03-26T19:17:42.361Z,4.21
2018-03-26T19:20:09.922Z,4.21
2018-03-26T19:22:37.505Z,4.13
2018-03-26T19:25:05.111Z,4.14
2018-03-26T19:27:32.701Z,4.14
2018-03-26T19:30:01.187Z,4.15
2018-03-26T19:32:28.741Z,4.17
2018-03-26T19:34:56.301Z,4.21
2018-03-26T19:37:25.055Z,4.17
2018-03-26T19:39:52.623Z,4.14
2018-03-26T19:42:20.289Z,4.17
2018-03-26T19:44:47.846Z,4.17
2018-03-26T19:47:15.496Z,4.16
2018-03-26T19:49:44.447Z,4.19
2018-03-26T19:52:12.074Z,4.13
2018-03-26T19:54:39.805Z,4.02
2018-03-26T19:57:07.460Z,4.00
2018-03-26T19:59:35.142Z,3.91
2018-03-26T20:02:02.733Z,3.99
2018-03-26T20:04:30.271Z,3.97
2018-03-26T20:06:57.821Z,3.97
2018-03-26T20:09:27.155Z,3.98
2018-03-26T20:11:54.719Z,3.99
2018-03-26T20:14:22.416Z,3.94
2018-03-26T20:16:50.017Z,3.82
2018-03-26T20:19:18.304Z,3.71
2018-03-26T20:21:46.043Z,3.64
2018-03-26T20:24:13.657Z,3.64
2018-03-26T20:26:41.238Z,3.57
2018-03-26T20:29:08.892Z,3.55
2018-03-26T20:31:36.739Z,3.43
2018-03-26T20:34:04.389Z,3.25
2018-03-26T20:36:32.816Z,3.25
2018-03-26T20:39:00.404Z,3.10
2018-03-26T20:41:30.826Z,3.18
2018-03-26T20:43:59.264Z,3.18
2018-03-26T20:46:27.896Z,3.09
2018-03-26T20:48:55.433Z,3.05
2018-03-26T20:51:26.283Z,3.10
2018-03-26T20:53:55.253Z,3.19
2018-03-26T20:56:22.808Z,3.18
2018-03-26T20:58:50.373Z,3.17
2018-03-26T21:01:18.158Z,3.31
2018-03-26T21:03:45.965Z,3.36
2018-03-26T21:06:14.164Z,3.53
2018-03-26T21:08:41.736Z,3.52
2018-03-26T21:11:09.308Z,3.58
2018-03-26T21:13:37.113Z,3.63
2018-03-26T21:16:04.709Z,3.69
2018-03-26T21:18:32.277Z,3.78
2018-03-26T21:21:01.097Z,3.78
2018-03-26T21:23:29.113Z,3.88
2018-03-26T21:25:56.663Z,3.93
2018-03-26T21:28:24.253Z,3.95
2018-03-26T21:30:51.793Z,3.96
2018-03-26T21:33:19.364Z,3.97
2018-03-26T21:35:46.896Z,3.99
2018-03-26T21:38:14.500Z,3.92
2018-03-26T21:40:42.041Z,3.87
2018-03-26T21:43:14.306Z,3.91
2018-03-26T21:45:41.914Z,4.02
2018-03-26T21:48:09.544Z,4.05
2018-03-26T21:50:37.111Z,4.04
2018-03-26T21:53:04.661Z,4.09
2018-03-26T21:55:32.234Z,4.14
2018-03-26T21:57:59.823Z,4.13
2018-03-26T22:00:27.372Z,4.07
2018-03-26T22:02:54.896Z,4.03
2018-03-26T22:05:28.876Z,3.96
2018-03-26T22:07:56.772Z,3.89
2018-03-26T22:10:24.531Z,3.82
2018-03-26T22:12:52.180Z,3.91
2018-03-26T22:15:19.955Z,3.95
2018-03-26T22:17:47.520Z,3.90
2018-03-26T22:20:15.109Z,3.82
2018-03-26T22:22:42.712Z,3.86
2018-03-26T22:25:10.249Z,3.87
2018-03-26T22:27:37.792Z,3.90
2018-03-26T22:30:05.359Z,3.89
2018-03-26T22:32:32.940Z,3.83
2018-03-26T22:35:02.577Z,3.85
2018-03-26T22:37:34.329Z,3.85
2018-03-26T22:40:04.567Z,3.83
2018-03-26T22:42:32.707Z,3.86
2018-03-26T22:45:00.294Z,3.88
2018-03-26T22:47:29.043Z,3.89
2018-03-26T22:49:58.738Z,3.82
2018-03-26T22:52:29.791Z,3.70
2018-03-26T22:54:58.217Z,3.65
2018-03-26T22:57:27.910Z,3.68
2018-03-26T23:00:00.620Z,3.69
2018-03-26T23:02:28.645Z,3.66
2018-03-26T23:04:56.441Z,3.57
2018-03-26T23:07:25.396Z,3.49
2018-03-26T23:09:52.978Z,3.37
2018-03-26T23:12:20.547Z,3.33
2018-03-26T23:14:55.870Z,3.31
2018-03-26T23:17:23.453Z,3.38
2018-03-26T23:19:51.022Z,3.39
2018-03-26T23:22:30.199Z,3.37
2018-03-26T23:24:57.761Z,3.33
2018-03-26T23:27:26.115Z,3.23
2018-03-26T23:29:53.795Z,3.20
2018-03-26T23:32:21.494Z,3.06
2018-03-26T23:34:49.040Z,3.01
2018-03-26T23:37:17.385Z,3.00
2018-03-26T23:39:44.979Z,3.02
2018-03-26T23:42:12.642Z,2.99
2018-03-26T23:44:40.255Z,3.02
2018-03-26T23:47:07.847Z,2.97
2018-03-26T23:49:35.440Z,2.95
2018-03-26T23:52:02.988Z,2.89
2018-03-26T23:54:30.556Z,2.87
2018-03-26T23:56:58.128Z,2.79
2018-03-26T23:59:27.017Z,2.73
